MAS8000 WMKK-OEJN
Flight info
| Callsign | MAS8000 |
|---|---|
| Flight time | N/A |
| Altitude | 36000 |
| Route | PUGER2D PUGER DCT AVDIN DCT BAC DCT MEMAK DCT SADRI DCT XOKRO DCT BEBOK DCT NUVTI DCT MML DCT DOGBU DCT VASTU DCT 15N069E DCT METIP DCT RIGLO DCT 18N057E DCT LONIV DCT DAVLO DCT BOSUT |
| Aircraft | A388/J-SADE2E3FGHIJ3J4J5M1RWXY/LB1D1 |
Departure
| Time | N/A |
|---|---|
| Airport | Kuala Lumpur International Airport (WMKK) |
Arrival
| Time | 2026-05-04 14:50 |
|---|---|
| Airport | King Abdulaziz International Airport (OEJN) |
| Time | Latitude | Longitude | Altitude | Speed | Heading |
|---|---|---|---|---|---|
| 2026-05-04 14:30 | 20.73489 | 39.82957 | 14244 ft | 357 kts | 279° |
| 2026-05-04 14:30 | 20.74213 | 39.78673 | 13454 ft | 357 kts | 278° |
| 2026-05-04 14:31 | 20.74652 | 39.76075 | 13026 ft | 352 kts | 278° |
| 2026-05-04 14:31 | 20.75508 | 39.71000 | 12241 ft | 343 kts | 278° |
| 2026-05-04 14:32 | 20.76343 | 39.66029 | 11317 ft | 337 kts | 278° |
| 2026-05-04 14:32 | 20.76748 | 39.63609 | 10881 ft | 335 kts | 278° |
| 2026-05-04 14:32 | 20.77156 | 39.61171 | 10471 ft | 332 kts | 278° |
| 2026-05-04 14:32 | 20.77556 | 39.58788 | 10342 ft | 319 kts | 277° |
| 2026-05-04 14:33 | 20.77941 | 39.56502 | 10244 ft | 307 kts | 278° |
| 2026-05-04 14:33 | 20.78642 | 39.54381 | 10012 ft | 305 kts | 300° |
| 2026-05-04 14:33 | 20.80099 | 39.52742 | 9874 ft | 307 kts | 325° |
| 2026-05-04 14:33 | 20.82048 | 39.51835 | 9665 ft | 308 kts | 344° |
| 2026-05-04 14:34 | 20.84140 | 39.51370 | 9451 ft | 302 kts | 349° |
| 2026-05-04 14:34 | 20.86170 | 39.50992 | 9356 ft | 291 kts | 349° |
| 2026-05-04 14:34 | 20.88123 | 39.50581 | 9271 ft | 281 kts | 347° |
| 2026-05-04 14:34 | 20.89986 | 39.50137 | 9074 ft | 269 kts | 346° |
| 2026-05-04 14:35 | 20.91779 | 39.49674 | 8865 ft | 262 kts | 345° |
| 2026-05-04 14:35 | 20.93547 | 39.49200 | 8609 ft | 260 kts | 345° |
| 2026-05-04 14:35 | 20.95298 | 39.48725 | 8360 ft | 258 kts | 345° |
| 2026-05-04 14:35 | 20.97034 | 39.48252 | 8090 ft | 257 kts | 345° |
| 2026-05-04 14:36 | 20.98751 | 39.47785 | 7982 ft | 251 kts | 345° |
| 2026-05-04 14:36 | 21.00433 | 39.47329 | 7822 ft | 249 kts | 345° |
| 2026-05-04 14:36 | 21.02101 | 39.46878 | 7628 ft | 245 kts | 346° |
| 2026-05-04 14:36 | 21.03751 | 39.46432 | 7404 ft | 244 kts | 346° |
| 2026-05-04 14:37 | 21.05389 | 39.45990 | 7186 ft | 242 kts | 346° |
| 2026-05-04 14:37 | 21.07016 | 39.45550 | 6968 ft | 240 kts | 346° |
| 2026-05-04 14:37 | 21.08630 | 39.45113 | 6749 ft | 238 kts | 346° |
| 2026-05-04 14:37 | 21.10233 | 39.44679 | 6537 ft | 237 kts | 346° |
| 2026-05-04 14:38 | 21.11809 | 39.44252 | 6318 ft | 236 kts | 346° |
| 2026-05-04 14:38 | 21.13395 | 39.43824 | 6100 ft | 234 kts | 346° |
| 2026-05-04 14:38 | 21.14963 | 39.43399 | 5877 ft | 232 kts | 346° |
| 2026-05-04 14:38 | 21.16495 | 39.42985 | 5660 ft | 230 kts | 346° |
| 2026-05-04 14:39 | 21.18038 | 39.42567 | 5443 ft | 227 kts | 346° |
| 2026-05-04 14:39 | 21.19561 | 39.42153 | 5230 ft | 225 kts | 346° |
| 2026-05-04 14:39 | 21.21069 | 39.41745 | 5026 ft | 222 kts | 346° |
| 2026-05-04 14:40 | 21.23722 | 39.40211 | 4615 ft | 217 kts | 317° |
| 2026-05-04 14:40 | 21.24763 | 39.39068 | 4399 ft | 210 kts | 317° |
| 2026-05-04 14:40 | 21.25754 | 39.38022 | 4173 ft | 189 kts | 318° |
| 2026-05-04 14:40 | 21.26657 | 39.37085 | 4026 ft | 175 kts | 318° |
| 2026-05-04 14:41 | 21.27527 | 39.36188 | 3857 ft | 174 kts | 319° |
| 2026-05-04 14:41 | 21.28115 | 39.35583 | 3752 ft | 180 kts | 319° |
| 2026-05-04 14:41 | 21.30330 | 39.33300 | 3318 ft | 194 kts | 317° |
| 2026-05-04 14:42 | 21.31967 | 39.31783 | 3032 ft | 187 kts | 329° |
| 2026-05-04 14:42 | 21.33179 | 39.31186 | 3032 ft | 198 kts | 340° |
| 2026-05-04 14:42 | 21.34509 | 39.30700 | 3029 ft | 205 kts | 340° |
| 2026-05-04 14:43 | 21.35875 | 39.30172 | 3028 ft | 212 kts | 339° |
| 2026-05-04 14:43 | 21.37306 | 39.29604 | 3022 ft | 225 kts | 339° |
| 2026-05-04 14:43 | 21.38777 | 39.29022 | 3017 ft | 224 kts | 339° |
| 2026-05-04 14:43 | 21.40220 | 39.28452 | 3016 ft | 219 kts | 340° |
| 2026-05-04 14:44 | 21.41630 | 39.27900 | 3000 ft | 212 kts | 339° |
| 2026-05-04 14:44 | 21.42869 | 39.27413 | 2852 ft | 211 kts | 339° |
| 2026-05-04 14:44 | 21.44211 | 39.26885 | 2735 ft | 197 kts | 339° |
| 2026-05-04 14:44 | 21.45446 | 39.26402 | 2618 ft | 192 kts | 339° |
| 2026-05-04 14:45 | 21.46726 | 39.25901 | 2490 ft | 195 kts | 338° |
| 2026-05-04 14:45 | 21.47955 | 39.25429 | 2396 ft | 178 kts | 339° |
| 2026-05-04 14:45 | 21.49090 | 39.24992 | 2136 ft | 171 kts | 338° |
| 2026-05-04 14:45 | 21.50191 | 39.24555 | 2027 ft | 172 kts | 338° |
| 2026-05-04 14:46 | 21.51304 | 39.24115 | 1979 ft | 173 kts | 338° |
| 2026-05-04 14:46 | 21.52429 | 39.23673 | 1915 ft | 175 kts | 338° |
| 2026-05-04 14:46 | 21.53561 | 39.23224 | 1799 ft | 178 kts | 338° |
| 2026-05-04 14:46 | 21.54699 | 39.22775 | 1713 ft | 166 kts | 338° |
| 2026-05-04 14:47 | 21.55744 | 39.22363 | 1698 ft | 157 kts | 338° |
| 2026-05-04 14:47 | 21.56751 | 39.21960 | 1700 ft | 150 kts | 338° |
| 2026-05-04 14:47 | 21.57685 | 39.21596 | 1702 ft | 138 kts | 338° |
| 2026-05-04 14:47 | 21.58582 | 39.21240 | 1677 ft | 137 kts | 339° |
| 2026-05-04 14:48 | 21.59486 | 39.20883 | 1517 ft | 138 kts | 339° |
| 2026-05-04 14:48 | 21.60336 | 39.20546 | 1349 ft | 136 kts | 339° |
| 2026-05-04 14:48 | 21.61223 | 39.20197 | 1166 ft | 134 kts | 337° |
| 2026-05-04 14:48 | 21.62100 | 39.19848 | 1003 ft | 135 kts | 337° |
| 2026-05-04 14:49 | 21.62978 | 39.19502 | 828 ft | 132 kts | 336° |
| 2026-05-04 14:49 | 21.63829 | 39.19163 | 674 ft | 129 kts | 335° |
| 2026-05-04 14:49 | 21.64683 | 39.18825 | 513 ft | 133 kts | 334° |
| 2026-05-04 14:49 | 21.65562 | 39.18466 | 333 ft | 137 kts | 334° |
| 2026-05-04 14:50 | 21.66461 | 39.18125 | 158 ft | 136 kts | 333° |
| 2026-05-04 14:50 | 21.67338 | 39.17794 | 53 ft | 128 kts | 334° |
| 2026-05-04 14:50 | 21.68004 | 39.17514 | 50 ft | 77 kts | 340° |
| 2026-05-04 14:50 | 21.68347 | 39.17383 | 51 ft | 37 kts | 339° |
| 2026-05-04 14:51 | 21.68593 | 39.17285 | 47 ft | 35 kts | 340° |
| 2026-05-04 14:51 | 21.68793 | 39.17199 | 47 ft | 27 kts | 323° |
| 2026-05-04 14:51 | 21.68905 | 39.17057 | 48 ft | 26 kts | 308° |
| 2026-05-04 14:51 | 21.69020 | 39.16898 | 47 ft | 18 kts | 313° |
| 2026-05-04 14:52 | 21.69140 | 39.16829 | 47 ft | 22 kts | 339° |
| 2026-05-04 14:52 | 21.69288 | 39.16772 | 47 ft | 16 kts | 342° |
| 2026-05-04 14:52 | 21.69347 | 39.16745 | 47 ft | 12 kts | 302° |
| 2026-05-04 14:52 | 21.69326 | 39.16621 | 46 ft | 25 kts | 250° |
| 2026-05-04 14:53 | 21.69254 | 39.16418 | 45 ft | 30 kts | 250° |
| 2026-05-04 14:53 | 21.69190 | 39.16230 | 42 ft | 27 kts | 250° |
| 2026-05-04 14:53 | 21.69125 | 39.16042 | 40 ft | 27 kts | 249° |
| 2026-05-04 14:53 | 21.69058 | 39.15847 | 37 ft | 29 kts | 250° |
| 2026-05-04 14:54 | 21.68988 | 39.15645 | 36 ft | 29 kts | 249° |
| 2026-05-04 14:54 | 21.68920 | 39.15448 | 35 ft | 29 kts | 249° |
| 2026-05-04 14:54 | 21.68854 | 39.15260 | 35 ft | 25 kts | 249° |
| 2026-05-04 14:54 | 21.68818 | 39.15150 | 35 ft | 9 kts | 274° |
| 2026-05-04 14:55 | 21.68856 | 39.15102 | 35 ft | 10 kts | 327° |
| 2026-05-04 14:55 | 21.68932 | 39.15066 | 35 ft | 14 kts | 341° |
| 2026-05-04 14:55 | 21.69036 | 39.15029 | 35 ft | 18 kts | 341° |
| 2026-05-04 14:55 | 21.69162 | 39.14985 | 35 ft | 20 kts | 340° |
| 2026-05-04 14:56 | 21.69298 | 39.14928 | 34 ft | 22 kts | 338° |
| 2026-05-04 14:56 | 21.69444 | 39.14867 | 34 ft | 23 kts | 341° |
| 2026-05-04 14:56 | 21.69602 | 39.14807 | 34 ft | 24 kts | 340° |
| 2026-05-04 14:56 | 21.69763 | 39.14745 | 34 ft | 25 kts | 340° |
| 2026-05-04 14:57 | 21.69847 | 39.14691 | 34 ft | 12 kts | 292° |
| 2026-05-04 14:57 | 21.69854 | 39.14608 | 34 ft | 6 kts | 249° |
| 2026-05-04 14:57 | 21.69825 | 39.14545 | 34 ft | 12 kts | 243° |
| 2026-05-04 14:57 | 21.69804 | 39.14476 | 34 ft | 7 kts | 257° |
| 2026-05-04 14:58 | 21.69798 | 39.14448 | 34 ft | 2 kts | 251° |
| 2026-05-04 14:58 | 21.69796 | 39.14442 | 34 ft | 0 kts | 251° |